createdAt,value
2023-02-24T00:00:33.924Z,18.17
2023-02-24T00:03:06.356Z,22.53
2023-02-24T00:05:35.755Z,16.53
2023-02-24T00:08:03.988Z,17.73
2023-02-24T00:10:33.925Z,19.17
2023-02-24T00:13:02.197Z,15.03
2023-02-24T00:15:30.425Z,15.43
2023-02-24T00:17:59.292Z,20.97
2023-02-24T00:20:27.513Z,17.10
2023-02-24T00:22:55.779Z,23.13
2023-02-24T00:25:23.992Z,18.90
2023-02-24T00:27:55.626Z,16.53
2023-02-24T00:30:24.126Z,19.57
2023-02-24T00:32:52.435Z,19.13
2023-02-24T00:35:20.703Z,20.30
2023-02-24T00:37:54.322Z,18.07
2023-02-24T00:40:24.034Z,17.37
2023-02-24T00:42:54.075Z,21.10
2023-02-24T00:45:22.286Z,21.43
2023-02-24T00:47:50.566Z,18.13
2023-02-24T00:50:19.098Z,18.87
2023-02-24T00:52:47.342Z,20.37
2023-02-24T00:55:15.841Z,22.90
2023-02-24T00:57:44.964Z,22.20
2023-02-24T01:00:16.611Z,18.73
2023-02-24T01:02:47.146Z,14.20
2023-02-24T01:05:15.915Z,18.80
2023-02-24T01:07:44.178Z,16.70
2023-02-24T01:10:13.376Z,21.30
2023-02-24T01:12:49.730Z,17.03
2023-02-24T01:15:20.655Z,13.30
2023-02-24T01:17:49.034Z,15.03
2023-02-24T01:20:18.379Z,16.73
2023-02-24T01:22:47.762Z,16.73
2023-02-24T01:25:16.232Z,17.93
2023-02-24T01:27:44.997Z,20.30
2023-02-24T01:30:16.150Z,14.63
2023-02-24T01:32:47.355Z,11.23
2023-02-24T01:35:15.859Z,16.03
2023-02-24T01:37:45.232Z,16.43
2023-02-24T01:40:21.162Z,13.40
2023-02-24T01:42:49.715Z,16.03
2023-02-24T01:45:21.237Z,17.03
2023-02-24T01:47:51.074Z,15.87
2023-02-24T01:50:21.634Z,13.50
2023-02-24T01:52:52.351Z,13.57
2023-02-24T01:55:23.261Z,14.70
2023-02-24T01:57:53.400Z,16.90
2023-02-24T02:00:38.837Z,15.63
2023-02-24T02:03:11.560Z,16.03
2023-02-24T02:05:41.162Z,17.03
2023-02-24T02:08:10.329Z,12.67
2023-02-24T02:10:39.699Z,14.57
2023-02-24T02:13:08.048Z,13.00
2023-02-24T02:15:41.954Z,12.73
2023-02-24T02:18:17.014Z,10.47
2023-02-24T02:21:00.594Z,12.33
2023-02-24T02:23:41.841Z,16.43
2023-02-24T02:26:19.908Z,15.13
2023-02-24T02:28:57.172Z,10.87
2023-02-24T02:31:33.201Z,14.33
2023-02-24T02:34:14.461Z,11.17
2023-02-24T02:36:48.718Z,14.77
2023-02-24T02:39:20.260Z,17.50
2023-02-24T02:41:52.026Z,15.47
2023-02-24T02:44:22.763Z,16.30
2023-02-24T02:46:52.507Z,16.03
2023-02-24T02:49:23.396Z,14.93
2023-02-24T02:51:53.736Z,17.50
2023-02-24T02:54:27.360Z,12.97
2023-02-24T02:56:59.883Z,16.07
2023-02-24T02:59:29.565Z,14.20
2023-02-24T03:02:01.240Z,9.50
2023-02-24T03:04:31.362Z,11.27
2023-02-24T03:07:02.199Z,15.97
2023-02-24T03:09:32.018Z,13.03
2023-02-24T03:12:02.178Z,9.63
2023-02-24T03:14:31.147Z,9.47
2023-02-24T03:17:04.520Z,12.80
2023-02-24T03:19:37.260Z,15.43
2023-02-24T03:22:09.263Z,12.40
2023-02-24T03:24:39.005Z,11.77
2023-02-24T03:27:10.279Z,16.67
2023-02-24T03:29:41.559Z,10.93
2023-02-24T03:32:12.261Z,17.03
2023-02-24T03:34:47.248Z,12.20
2023-02-24T03:37:15.574Z,16.80
2023-02-24T03:39:46.767Z,18.13
2023-02-24T03:42:18.081Z,14.93
2023-02-24T03:44:46.454Z,14.30
2023-02-24T03:47:15.815Z,10.03
2023-02-24T03:49:45.359Z,12.77
2023-02-24T03:52:21.419Z,12.90
2023-02-24T03:54:59.518Z,11.73
2023-02-24T03:57:31.102Z,11.53
2023-02-24T04:00:20.360Z,13.47
2023-02-24T04:02:51.697Z,12.83
2023-02-24T04:05:22.814Z,11.93
2023-02-24T04:07:54.331Z,14.93
2023-02-24T04:10:24.606Z,11.10
2023-02-24T04:12:55.315Z,8.80
2023-02-24T04:15:25.389Z,12.33
2023-02-24T04:17:57.448Z,11.50
2023-02-24T04:20:29.465Z,13.73
2023-02-24T04:22:59.711Z,18.50
2023-02-24T04:25:28.613Z,11.30
2023-02-24T04:27:59.238Z,12.73
2023-02-24T04:30:29.678Z,9.33
2023-02-24T04:32:58.068Z,10.53
2023-02-24T04:35:28.780Z,8.67
2023-02-24T04:37:57.539Z,10.67
2023-02-24T04:40:25.817Z,12.10
2023-02-24T04:42:55.174Z,13.87
2023-02-24T04:45:25.645Z,11.23
2023-02-24T04:47:56.153Z,13.27
2023-02-24T04:50:25.866Z,11.43
2023-02-24T04:52:56.570Z,10.70
2023-02-24T04:55:26.499Z,11.30
2023-02-24T04:57:55.034Z,11.17
2023-02-24T05:00:26.435Z,10.17
2023-02-24T05:02:56.352Z,9.17
2023-02-24T05:05:27.002Z,9.93
2023-02-24T05:07:57.378Z,10.13
2023-02-24T05:10:27.985Z,13.50
2023-02-24T05:12:58.124Z,11.53
2023-02-24T05:15:31.261Z,10.60
2023-02-24T05:18:01.026Z,14.50
2023-02-24T05:20:46.831Z,9.10
2023-02-24T05:23:17.460Z,10.37
2023-02-24T05:25:46.315Z,10.47
2023-02-24T05:28:15.774Z,9.47
2023-02-24T05:30:44.268Z,10.63
2023-02-24T05:33:13.649Z,6.00
2023-02-24T05:35:42.011Z,13.33
2023-02-24T05:38:10.647Z,11.13
2023-02-24T05:40:46.402Z,7.10
2023-02-24T05:43:18.111Z,11.53
2023-02-24T05:45:46.439Z,19.43
2023-02-24T05:48:15.566Z,9.63
2023-02-24T05:50:46.232Z,11.73
2023-02-24T05:53:15.221Z,10.03
2023-02-24T05:55:45.022Z,8.70
2023-02-24T05:58:16.432Z,11.37
2023-02-24T06:00:46.321Z,10.73
2023-02-24T06:03:17.612Z,9.90
2023-02-24T06:05:45.979Z,9.30
2023-02-24T06:08:14.189Z,12.57
2023-02-24T06:10:47.365Z,11.53
2023-02-24T06:13:17.039Z,7.67
2023-02-24T06:15:50.389Z,14.70
2023-02-24T06:18:18.784Z,12.00
2023-02-24T06:20:51.228Z,8.03
2023-02-24T06:23:19.531Z,9.63
2023-02-24T06:25:47.761Z,9.07
2023-02-24T06:28:19.902Z,8.13
2023-02-24T06:30:48.187Z,8.17
2023-02-24T06:33:16.420Z,11.03
2023-02-24T06:35:44.608Z,9.80
2023-02-24T06:38:13.078Z,7.47
2023-02-24T06:40:42.573Z,11.27
2023-02-24T06:43:11.036Z,12.70
2023-02-24T06:45:40.971Z,12.70
2023-02-24T06:48:09.466Z,10.53
2023-02-24T06:50:38.058Z,11.33
2023-02-24T06:53:10.360Z,11.20
2023-02-24T06:55:38.600Z,10.43
2023-02-24T06:58:07.056Z,10.00
2023-02-24T07:00:39.343Z,9.33
2023-02-24T07:03:16.699Z,11.10
2023-02-24T07:05:50.157Z,11.57
2023-02-24T07:08:19.170Z,12.67
2023-02-24T07:10:48.338Z,8.30
2023-02-24T07:13:16.569Z,12.87
2023-02-24T07:15:49.101Z,13.70
2023-02-24T07:18:19.152Z,13.03
2023-02-24T07:20:47.921Z,11.80
2023-02-24T07:23:16.223Z,10.20
2023-02-24T07:25:46.460Z,17.27
2023-02-24T07:28:15.125Z,8.63
2023-02-24T07:30:43.789Z,9.60
2023-02-24T07:33:12.157Z,9.77
2023-02-24T07:35:42.359Z,11.90
2023-02-24T07:38:10.569Z,14.27
2023-02-24T07:40:40.764Z,10.33
2023-02-24T07:43:09.010Z,10.33
2023-02-24T07:45:37.307Z,9.33
2023-02-24T07:48:05.543Z,10.60
2023-02-24T07:50:36.609Z,8.73
2023-02-24T07:53:06.234Z,9.10
2023-02-24T07:55:36.150Z,10.13
2023-02-24T07:58:05.796Z,8.27
2023-02-24T08:00:51.179Z,9.77
2023-02-24T08:03:19.405Z,13.47
2023-02-24T08:05:47.656Z,11.60
2023-02-24T08:08:21.052Z,10.20
2023-02-24T08:10:49.336Z,6.83
2023-02-24T08:13:19.137Z,9.77
2023-02-24T08:15:57.279Z,9.07
2023-02-24T08:18:28.377Z,8.00
2023-02-24T08:21:04.527Z,8.43
2023-02-24T08:23:44.486Z,4.87
2023-02-24T08:26:13.223Z,9.27
2023-02-24T08:28:41.938Z,8.93
2023-02-24T08:31:12.673Z,11.30
2023-02-24T08:33:40.951Z,5.93
2023-02-24T08:36:09.200Z,6.77
2023-02-24T08:38:42.385Z,7.73
2023-02-24T08:41:17.664Z,7.57
2023-02-24T08:43:53.328Z,8.60
2023-02-24T08:46:26.699Z,8.33
2023-02-24T08:48:56.729Z,8.40
2023-02-24T08:51:28.893Z,5.57
2023-02-24T08:53:59.742Z,7.03
2023-02-24T08:56:30.281Z,9.33
2023-02-24T08:59:05.251Z,8.80
2023-02-24T09:01:35.323Z,12.40
2023-02-24T09:04:04.627Z,9.20
2023-02-24T09:06:37.631Z,11.00
2023-02-24T09:09:21.029Z,9.70
2023-02-24T09:11:50.264Z,10.60
2023-02-24T09:14:27.485Z,6.10
2023-02-24T09:17:11.429Z,5.50
2023-02-24T09:19:58.498Z,8.93
2023-02-24T09:22:40.804Z,9.47
2023-02-24T09:25:25.805Z,6.47
2023-02-24T09:27:57.118Z,6.70
2023-02-24T09:30:36.872Z,9.73
2023-02-24T09:33:18.882Z,10.33
2023-02-24T09:35:52.082Z,9.93
2023-02-24T09:38:25.066Z,13.17
2023-02-24T09:40:54.623Z,9.27
2023-02-24T09:43:24.411Z,9.73
2023-02-24T09:45:58.267Z,7.30
2023-02-24T09:48:43.625Z,10.93
2023-02-24T09:51:21.633Z,12.27
2023-02-24T09:53:53.495Z,8.80
2023-02-24T09:56:28.391Z,9.17
2023-02-24T09:58:59.734Z,12.07
2023-02-24T10:01:35.910Z,12.50
2023-02-24T10:04:18.698Z,8.17
2023-02-24T10:06:50.084Z,7.43
2023-02-24T10:09:24.573Z,10.47
2023-02-24T10:11:55.708Z,10.77
2023-02-24T10:14:42.806Z,11.20
2023-02-24T10:17:23.853Z,14.27
2023-02-24T10:20:00.012Z,12.53
2023-02-24T10:22:34.689Z,12.60
2023-02-24T10:25:11.903Z,12.03
2023-02-24T10:27:52.886Z,12.53
2023-02-24T10:30:40.732Z,9.37
2023-02-24T10:33:18.913Z,10.83
2023-02-24T10:35:47.230Z,9.27
2023-02-24T10:38:15.639Z,9.23
2023-02-24T10:40:48.099Z,8.50
2023-02-24T10:43:30.082Z,10.43
2023-02-24T10:46:06.168Z,12.10
2023-02-24T10:48:41.713Z,10.20
2023-02-24T10:51:19.822Z,10.03
2023-02-24T10:53:53.306Z,11.87
2023-02-24T10:56:39.913Z,6.27
2023-02-24T10:59:41.298Z,9.53
2023-02-24T11:02:32.723Z,7.10
2023-02-24T11:05:24.654Z,8.90
2023-02-24T11:07:56.023Z,8.43
2023-02-24T11:10:32.895Z,6.80
2023-02-24T11:13:20.614Z,4.83
2023-02-24T11:16:08.937Z,9.87
2023-02-24T11:18:38.775Z,6.93
2023-02-24T11:21:08.441Z,8.50
2023-02-24T11:23:37.407Z,4.57
2023-02-24T11:26:18.412Z,9.97
2023-02-24T11:28:52.272Z,6.97
2023-02-24T11:31:33.843Z,6.53
2023-02-24T11:34:06.095Z,6.97
2023-02-24T11:36:39.568Z,9.77
2023-02-24T11:39:21.422Z,6.33
2023-02-24T11:41:53.912Z,6.93
2023-02-24T11:44:25.879Z,6.40
2023-02-24T11:46:57.668Z,4.67
2023-02-24T11:49:29.893Z,6.97
2023-02-24T11:51:59.585Z,4.93
2023-02-24T11:54:28.782Z,7.43
2023-02-24T11:56:59.351Z,7.90
2023-02-24T11:59:32.506Z,5.50
2023-02-24T12:02:05.607Z,6.10
2023-02-24T12:04:35.771Z,8.13
2023-02-24T12:07:07.177Z,5.27
2023-02-24T12:09:38.452Z,6.93
2023-02-24T12:12:11.799Z,5.83
2023-02-24T12:14:43.661Z,5.90
2023-02-24T12:17:19.083Z,7.47
2023-02-24T12:19:54.867Z,8.33
2023-02-24T12:22:28.313Z,5.30
2023-02-24T12:24:56.585Z,8.20
2023-02-24T12:27:33.680Z,8.00
2023-02-24T12:30:23.004Z,7.93
2023-02-24T12:33:02.235Z,9.63
2023-02-24T12:35:35.035Z,12.77
2023-02-24T12:38:10.473Z,12.30
2023-02-24T12:40:45.677Z,8.93
2023-02-24T12:43:25.268Z,13.67
2023-02-24T12:45:56.341Z,10.53
2023-02-24T12:48:36.739Z,9.60
2023-02-24T12:51:08.891Z,8.13
2023-02-24T12:53:41.729Z,10.13
2023-02-24T12:56:13.315Z,14.30
2023-02-24T12:58:44.456Z,11.33
2023-02-24T13:01:17.381Z,10.17
2023-02-24T13:03:59.656Z,9.43
2023-02-24T13:06:32.254Z,10.60
2023-02-24T13:09:02.127Z,6.10
2023-02-24T13:11:36.917Z,13.43
2023-02-24T13:14:08.832Z,7.73
2023-02-24T13:16:37.758Z,9.57
2023-02-24T13:19:08.565Z,6.80
2023-02-24T13:21:36.932Z,7.57
2023-02-24T13:24:05.598Z,4.97
2023-02-24T13:26:34.727Z,8.63
2023-02-24T13:29:04.520Z,9.30
2023-02-24T13:31:42.211Z,11.80
2023-02-24T13:34:30.861Z,8.83
2023-02-24T13:36:59.362Z,13.63
2023-02-24T13:39:33.793Z,9.40
2023-02-24T13:42:06.537Z,10.73
2023-02-24T13:44:35.587Z,9.13
2023-02-24T13:47:22.082Z,9.60
2023-02-24T13:49:57.024Z,9.13
2023-02-24T13:52:32.707Z,13.73
2023-02-24T13:55:07.996Z,12.10
2023-02-24T13:57:49.588Z,12.57
2023-02-24T14:00:23.690Z,17.93
2023-02-24T14:02:53.362Z,10.37
2023-02-24T14:05:25.662Z,13.00
2023-02-24T14:07:54.604Z,13.30
2023-02-24T14:10:25.104Z,14.17
2023-02-24T14:12:58.900Z,13.60
2023-02-24T14:15:28.903Z,11.60
2023-02-24T14:17:59.209Z,16.70
2023-02-24T14:20:29.736Z,14.23
2023-02-24T14:22:59.670Z,16.70
2023-02-24T14:25:29.041Z,14.33
2023-02-24T14:27:58.335Z,15.67
2023-02-24T14:30:28.216Z,15.23
2023-02-24T14:32:57.093Z,11.33
2023-02-24T14:35:27.955Z,16.93
2023-02-24T14:37:57.683Z,15.57
2023-02-24T14:40:26.361Z,15.23
2023-02-24T14:42:55.593Z,16.40
2023-02-24T14:45:26.162Z,14.00
2023-02-24T14:47:54.656Z,11.73
2023-02-24T14:50:26.268Z,12.50
2023-02-24T14:52:56.237Z,10.87
2023-02-24T14:55:28.278Z,9.07
2023-02-24T14:57:59.550Z,9.30
2023-02-24T15:00:29.350Z,10.77
2023-02-24T15:03:04.216Z,10.63
2023-02-24T15:05:33.835Z,7.33
2023-02-24T15:08:04.188Z,9.87
2023-02-24T15:10:33.910Z,8.30
2023-02-24T15:13:08.617Z,8.77
2023-02-24T15:15:39.478Z,6.30
2023-02-24T15:18:12.242Z,7.27
2023-02-24T15:20:41.764Z,7.77
2023-02-24T15:23:24.180Z,9.53
2023-02-24T15:25:53.925Z,7.07
2023-02-24T15:28:26.811Z,6.93
2023-02-24T15:31:07.031Z,7.90
2023-02-24T15:33:37.548Z,7.33
2023-02-24T15:36:08.322Z,8.10
2023-02-24T15:38:37.504Z,10.80
2023-02-24T15:41:08.078Z,13.57
2023-02-24T15:43:38.119Z,15.43
2023-02-24T15:46:16.625Z,9.60
2023-02-24T15:48:45.461Z,11.87
2023-02-24T15:51:20.343Z,15.93
2023-02-24T15:53:48.780Z,11.27
2023-02-24T15:56:18.459Z,16.43
2023-02-24T15:58:46.993Z,11.77
2023-02-24T16:01:15.653Z,11.90
2023-02-24T16:03:44.215Z,10.00
2023-02-24T16:06:16.372Z,14.77
2023-02-24T16:08:46.512Z,10.23
2023-02-24T16:11:15.386Z,12.23
2023-02-24T16:13:47.470Z,12.00
2023-02-24T16:16:16.479Z,12.23
2023-02-24T16:18:45.933Z,11.70
2023-02-24T16:21:14.389Z,10.67
2023-02-24T16:23:42.772Z,9.20
2023-02-24T16:26:15.250Z,10.37
2023-02-24T16:28:43.774Z,8.73
2023-02-24T16:31:13.686Z,11.20
2023-02-24T16:33:54.078Z,11.17
2023-02-24T16:36:24.524Z,10.03
2023-02-24T16:38:53.034Z,6.00
2023-02-24T16:41:21.597Z,5.93
2023-02-24T16:43:49.957Z,6.43
2023-02-24T16:46:21.240Z,3.90
2023-02-24T16:48:51.013Z,3.03
2023-02-24T16:51:19.329Z,2.87
2023-02-24T16:53:47.586Z,0.90
2023-02-24T16:56:15.815Z,3.43
2023-02-24T16:58:44.071Z,1.40
2023-02-24T17:01:15.212Z,1.43
2023-02-24T17:03:46.005Z,1.37
2023-02-24T17:06:14.253Z,1.53
2023-02-24T17:08:43.852Z,1.63
2023-02-24T17:11:12.860Z,1.80
2023-02-24T17:13:41.082Z,2.83
2023-02-24T17:16:09.615Z,4.10
2023-02-24T17:18:38.408Z,5.80
2023-02-24T17:21:08.111Z,4.80
2023-02-24T17:23:36.379Z,4.80
2023-02-24T17:26:04.777Z,4.53
2023-02-24T17:28:33.414Z,6.87
2023-02-24T17:31:01.745Z,4.97
2023-02-24T17:33:30.083Z,9.50
2023-02-24T17:35:58.332Z,11.13
2023-02-24T17:38:28.656Z,4.67
2023-02-24T17:40:57.589Z,6.27
2023-02-24T17:43:25.857Z,7.70
2023-02-24T17:45:54.202Z,8.17
2023-02-24T17:48:23.058Z,10.03
2023-02-24T17:50:51.977Z,8.30
2023-02-24T17:53:20.249Z,6.93
2023-02-24T17:56:01.994Z,6.17
2023-02-24T17:58:31.212Z,5.27
2023-02-24T18:01:01.650Z,8.17
2023-02-24T18:03:30.648Z,6.17
2023-02-24T18:06:00.142Z,6.93
2023-02-24T18:08:28.570Z,4.13
2023-02-24T18:10:59.073Z,8.13
2023-02-24T18:13:27.498Z,6.80
2023-02-24T18:15:55.844Z,6.40
2023-02-24T18:18:24.119Z,8.47
2023-02-24T18:20:52.421Z,5.70
2023-02-24T18:23:20.647Z,9.57
2023-02-24T18:25:48.848Z,9.03
2023-02-24T18:28:18.417Z,9.97
2023-02-24T18:30:46.694Z,8.07
2023-02-24T18:33:15.060Z,9.30
2023-02-24T18:35:43.309Z,10.90
2023-02-24T18:38:11.668Z,11.77
2023-02-24T18:40:39.949Z,9.07
2023-02-24T18:43:08.161Z,12.97
2023-02-24T18:45:37.737Z,9.90
2023-02-24T18:48:06.103Z,9.50
2023-02-24T18:50:34.825Z,11.97
2023-02-24T18:53:03.374Z,13.30
2023-02-24T18:55:31.556Z,15.23
2023-02-24T18:57:59.996Z,11.30
2023-02-24T19:00:28.380Z,12.87
2023-02-24T19:02:58.070Z,11.60
2023-02-24T19:05:36.931Z,14.87
2023-02-24T19:08:06.582Z,13.20
2023-02-24T19:10:34.797Z,12.43
2023-02-24T19:13:03.069Z,11.20
2023-02-24T19:15:31.299Z,11.53
2023-02-24T19:18:01.071Z,14.77
2023-02-24T19:20:29.438Z,15.00
2023-02-24T19:22:57.733Z,9.73
2023-02-24T19:25:26.021Z,10.77
2023-02-24T19:27:54.531Z,11.73
2023-02-24T19:30:22.855Z,15.73
2023-02-24T19:32:51.198Z,16.00
2023-02-24T19:35:20.927Z,14.07
2023-02-24T19:37:49.716Z,15.17
2023-02-24T19:40:18.230Z,12.60
2023-02-24T19:42:47.251Z,12.93
2023-02-24T19:45:15.461Z,13.93
2023-02-24T19:47:44.107Z,17.20
2023-02-24T19:50:13.352Z,16.53
2023-02-24T19:52:42.963Z,15.57
2023-02-24T19:55:12.092Z,18.13
2023-02-24T19:57:40.692Z,14.00
2023-02-24T20:00:11.533Z,15.17
2023-02-24T20:02:40.376Z,13.07
2023-02-24T20:05:10.366Z,28.23
2023-02-24T20:07:38.981Z,16.40
2023-02-24T20:10:09.155Z,18.40
2023-02-24T20:12:37.379Z,18.10
2023-02-24T20:15:07.156Z,17.87
2023-02-24T20:17:35.449Z,22.20
2023-02-24T20:20:03.905Z,18.17
2023-02-24T20:22:32.250Z,17.60
2023-02-24T20:25:00.536Z,22.03
2023-02-24T20:27:30.168Z,20.50
2023-02-24T20:29:58.712Z,20.93
2023-02-24T20:32:27.058Z,15.50
2023-02-24T20:34:55.411Z,21.70
2023-02-24T20:37:23.785Z,25.37
2023-02-24T20:39:53.222Z,17.30
2023-02-24T20:42:21.500Z,14.13
2023-02-24T20:44:51.237Z,15.10
2023-02-24T20:47:19.475Z,15.20
2023-02-24T20:49:47.755Z,16.73
2023-02-24T20:52:15.986Z,23.00
2023-02-24T20:54:45.813Z,19.77
2023-02-24T20:57:14.077Z,19.40
2023-02-24T20:59:49.226Z,20.63
2023-02-24T21:02:24.313Z,16.83
2023-02-24T21:04:52.559Z,22.87
2023-02-24T21:07:20.788Z,15.47
2023-02-24T21:09:48.996Z,23.87
2023-02-24T21:12:17.234Z,14.70
2023-02-24T21:14:45.538Z,21.57
2023-02-24T21:17:13.762Z,13.70
2023-02-24T21:19:43.850Z,16.17
2023-02-24T21:22:12.117Z,16.97
2023-02-24T21:24:43.268Z,16.30
2023-02-24T21:27:11.512Z,18.33
2023-02-24T21:29:39.906Z,16.83
2023-02-24T21:32:08.195Z,17.03
2023-02-24T21:34:36.585Z,18.80
2023-02-24T21:37:07.284Z,14.83
2023-02-24T21:39:35.621Z,14.33
2023-02-24T21:42:03.820Z,16.13
2023-02-24T21:44:32.141Z,11.10
2023-02-24T21:47:00.448Z,16.60
2023-02-24T21:49:30.150Z,10.30
2023-02-24T21:51:58.535Z,12.27
2023-02-24T21:54:31.960Z,13.60
2023-02-24T21:57:00.194Z,10.27
2023-02-24T21:59:28.401Z,13.47
2023-02-24T22:01:56.785Z,13.57
2023-02-24T22:04:25.044Z,13.80
2023-02-24T22:06:53.338Z,10.47
2023-02-24T22:09:21.608Z,14.03
2023-02-24T22:11:51.479Z,13.13
2023-02-24T22:14:20.376Z,12.23
2023-02-24T22:16:48.617Z,16.73
2023-02-24T22:19:18.985Z,11.80
2023-02-24T22:21:47.236Z,13.23
2023-02-24T22:24:16.732Z,13.73
2023-02-24T22:26:45.128Z,18.77
2023-02-24T22:29:14.696Z,11.57
2023-02-24T22:31:44.043Z,11.47
2023-02-24T22:34:13.118Z,17.60
2023-02-24T22:36:41.413Z,15.37
2023-02-24T22:39:16.555Z,12.23
2023-02-24T22:41:45.494Z,15.43
2023-02-24T22:44:19.088Z,10.47
2023-02-24T22:46:47.597Z,13.90
2023-02-24T22:49:15.898Z,11.37
2023-02-24T22:51:45.666Z,12.83
2023-02-24T22:54:13.908Z,17.07
2023-02-24T22:56:42.656Z,11.07
2023-02-24T22:59:11.959Z,15.00
2023-02-24T23:01:42.602Z,15.47
2023-02-24T23:04:14.282Z,11.70
2023-02-24T23:06:42.944Z,18.87
2023-02-24T23:09:11.911Z,12.37
2023-02-24T23:11:41.924Z,12.10
2023-02-24T23:14:13.727Z,12.20
2023-02-24T23:16:46.426Z,13.63
2023-02-24T23:19:17.340Z,14.00
2023-02-24T23:21:46.613Z,12.40
2023-02-24T23:24:15.535Z,9.80
2023-02-24T23:26:44.844Z,11.00
2023-02-24T23:29:14.039Z,12.57
2023-02-24T23:31:43.911Z,17.97
2023-02-24T23:34:12.207Z,15.23
2023-02-24T23:36:43.410Z,16.27
2023-02-24T23:39:13.195Z,14.67
2023-02-24T23:41:42.074Z,12.60
2023-02-24T23:44:10.872Z,19.37
2023-02-24T23:46:39.585Z,13.03
2023-02-24T23:49:09.644Z,12.87
2023-02-24T23:51:48.177Z,11.20
2023-02-24T23:54:17.484Z,18.63
2023-02-24T23:56:46.436Z,12.93
2023-02-24T23:59:15.488Z,13.50
